Time;durP1;ratioP1;P1;durP2;ratioP2;P2;SDS_P1;SDS_P2;PMS_P1;PMS_P2;Temp;Humidity;BMP_temperature;BMP_pressure;BME280_temperature;BME280_humidity;BME280_pressure;Samples;Min_cycle;Max_cycle;Signal;HPM_P1;HPM_P2
2022/05/22 00:01:54;;;;;;;8.95;2.80;;;;;;;;;;4966820;28;20062;-73
2022/05/22 00:04:21;;;;;;;7.40;3.70;;;;;;;;;;4969868;28;20058;-73
2022/05/22 00:06:47;;;;;;;15.05;4.10;;;;;;;;;;4953260;28;20034;-73
2022/05/22 00:09:13;;;;;;;10.30;3.42;;;;;;;;;;4970240;28;20039;-73
2022/05/22 00:11:39;;;;;;;10.77;3.55;;;;;;;;;;4972124;28;20031;-73
2022/05/22 00:14:05;;;;;;;12.73;3.30;;;;;;;;;;4970274;28;20590;-73
2022/05/22 00:16:37;;;;;;;10.10;4.05;;;;;;;;;;4971232;28;20043;-73
2022/05/22 00:19:31;;;;;;;10.85;3.65;;;10.70;99.90;;;;;;4972853;28;20027;-73
2022/05/22 00:21:58;;;;;;;12.15;3.78;;;;;;;;;;4949053;29;20487;-73
2022/05/22 00:24:25;;;;;;;12.82;3.83;;;;;;;;;;4940619;28;20047;-73
2022/05/22 00:26:52;;;;;;;11.98;3.63;;;;;;;;;;4967218;28;20050;-73
2022/05/22 00:29:19;;;;;;;10.43;3.42;;;;;;;;;;4970007;28;20054;-73
2022/05/22 00:31:45;;;;;;;11.60;3.67;;;;;;;;;;4973668;28;20027;-73
2022/05/22 00:34:11;;;;;;;6.43;3.13;;;;;;;;;;4971665;28;20116;-73
2022/05/22 00:36:37;;;;;;;6.57;3.20;;;;;;;;;;4966470;28;20386;-73
2022/05/22 00:39:03;;;;;;;10.55;4.10;;;;;;;;;;4971837;28;20046;-73
2022/05/22 00:41:30;;;;;;;15.88;3.95;;;;;;;;;;4968741;28;20031;-73
2022/05/22 00:43:57;;;;;;;10.73;4.10;;;;;;;;;;4972373;28;20042;-73
2022/05/22 00:46:24;;;;;;;9.65;3.97;;;;;;;;;;4970454;28;20031;-73
2022/05/22 00:48:53;;;;;;;11.55;3.63;;;;;;;;;;4973167;28;20115;-73
2022/05/22 00:51:19;;;;;;;9.27;4.03;;;;;;;;;;4974335;28;20066;-73
2022/05/22 00:54:04;;;;;;;10.88;3.92;;;;;;;;;;4981792;28;20081;-73
2022/05/22 00:56:35;;;;;;;11.38;4.00;;;;;;;;;;4974286;28;20089;-73
2022/05/22 00:59:01;;;;;;;9.43;4.38;;;;;;;;;;4970614;28;20872;-73
2022/05/22 01:01:28;;;;;;;10.32;4.18;;;;;;;;;;4970657;28;20031;-73
2022/05/22 01:03:55;;;;;;;11.90;4.68;;;;;;;;;;4973414;28;20397;-74
2022/05/22 01:06:24;;;;;;;8.73;4.30;;;;;;;;;;4974673;28;20383;-73
2022/05/22 01:08:50;;;;;;;6.85;3.75;;;;;;;;;;4976848;28;20053;-73
2022/05/22 01:11:21;;;;;;;11.57;4.05;;;;;;;;;;4977306;28;20125;-73
2022/05/22 01:13:49;;;;;;;10.25;3.78;;;;;;;;;;4975307;28;20030;-73
2022/05/22 01:16:15;;;;;;;9.48;4.07;;;;;;;;;;4973195;28;20027;-73
2022/05/22 01:18:42;;;;;;;8.68;4.70;;;;;;;;;;4974827;28;20039;-73
2022/05/22 01:21:11;;;;;;;13.13;4.20;;;;;;;;;;4978264;28;20039;-73
2022/05/22 01:23:37;;;;;;;11.27;4.18;;;;;;;;;;4974565;28;20081;-73
2022/05/22 01:26:03;;;;;;;11.40;4.43;;;;;;;;;;4977981;28;20034;-73
2022/05/22 01:28:29;;;;;;;8.43;4.35;;;;;;;;;;4985599;28;20034;-74
2022/05/22 01:30:55;;;;;;;14.20;4.60;;;;;;;;;;4953535;28;20039;-73
2022/05/22 01:33:21;;;;;;;14.07;4.60;;;;;;;;;;4970614;28;20114;-73
2022/05/22 01:35:47;;;;;;;12.43;4.85;;;;;;;;;;4974861;28;20118;-73
2022/05/22 01:38:13;;;;;;;11.43;4.55;;;;;;;;;;4974338;28;20043;-73
2022/05/22 01:40:39;;;;;;;10.82;3.85;;;;;;;;;;4975288;28;20039;-73
2022/05/22 01:43:06;;;;;;;8.45;4.18;;;;;;;;;;4972859;28;20486;-73
2022/05/22 01:45:32;;;;;;;11.88;4.45;;;;;;;;;;4973359;28;20413;-74
2022/05/22 01:47:58;;;;;;;9.77;4.55;;;;;;;;;;4973659;28;20033;-73
2022/05/22 01:50:24;;;;;;;9.35;4.18;;;;;;;;;;4956793;28;20042;-73
2022/05/22 01:52:50;;;;;;;14.98;4.95;;;;;;;;;;4972919;28;20387;-73
2022/05/22 01:55:16;;;;;;;7.88;3.88;;;;;;;;;;4973298;28;20126;-73
2022/05/22 01:57:42;;;;;;;14.48;4.38;;;;;;;;;;4974231;28;20057;-73
2022/05/22 02:00:11;;;;;;;9.00;4.13;;;;;;;;;;4974102;28;20426;-73
2022/05/22 02:02:37;;;;;;;15.38;4.45;;;;;;;;;;4973618;28;20034;-73
2022/05/22 02:05:04;;;;;;;8.35;5.75;;;;;;;;;;4973873;28;20082;-73
2022/05/22 02:10:15;;;;;;;13.05;5.00;;;;;;;;;;4972986;28;20045;-73
2022/05/22 02:12:41;;;;;;;8.80;4.60;;;;;;;;;;4973048;28;20435;-73
2022/05/22 02:15:07;;;;;;;9.35;5.07;;;;;;;;;;4969953;28;20066;-73
2022/05/22 02:17:34;;;;;;;10.88;5.43;;;;;;;;;;4961405;28;20070;-73
2022/05/22 02:20:00;;;;;;;12.15;5.75;;;;;;;;;;4972634;28;20027;-73
2022/05/22 02:22:26;;;;;;;15.50;5.22;;;;;;;;;;4974255;28;20068;-73
2022/05/22 02:24:54;;;;;;;12.55;5.00;;;;;;;;;;4945096;28;20026;-73
2022/05/22 02:27:21;;;;;;;9.02;4.22;;;;;;;;;;4972224;28;20034;-73
2022/05/22 02:29:47;;;;;;;12.50;5.25;;;;;;;;;;4972461;28;20046;-73
2022/05/22 02:32:13;;;;;;;8.30;4.63;;;;;;;;;;4973771;28;20030;-73
2022/05/22 02:34:40;;;;;;;9.60;4.90;;;;;;;;;;4973246;28;20023;-74
2022/05/22 02:37:06;;;;;;;15.77;4.78;;;;;;;;;;4974161;28;20030;-74
2022/05/22 02:39:33;;;;;;;12.18;5.43;;;;;;;;;;4972598;28;20027;-74
2022/05/22 02:42:06;;;;;;;11.73;4.40;;;;;;;;;;4972654;28;20471;-74
2022/05/22 02:44:32;;;;;;;11.20;5.03;;;;;;;;;;4971435;28;20475;-72
2022/05/22 02:46:58;;;;;;;11.43;5.15;;;;;;;;;;4972127;28;20043;-73
2022/05/22 02:49:24;;;;;;;9.23;4.95;;;;;;;;;;4970891;28;20061;-73
2022/05/22 02:51:50;;;;;;;7.90;4.63;;;;;;;;;;4968717;28;20031;-73
2022/05/22 02:54:16;;;;;;;8.93;4.95;;;;;;;;;;4973213;28;20027;-73
2022/05/22 02:56:42;;;;;;;14.23;4.90;;;;;;;;;;4971684;28;20493;-73
2022/05/22 02:59:08;;;;;;;10.70;4.97;;;;;;;;;;4972149;28;20114;-73
2022/05/22 03:01:34;;;;;;;12.77;5.15;;;;;;;;;;4970530;28;20495;-73
2022/05/22 03:04:00;;;;;;;9.98;4.78;;;;;;;;;;4972558;28;20110;-73
2022/05/22 03:06:39;;;;;;;12.48;5.60;;;;;;;;;;4972284;28;20166;-73
2022/05/22 03:09:05;;;;;;;11.98;5.28;;;;;;;;;;4972775;28;20394;-73
2022/05/22 03:11:31;;;;;;;15.15;5.93;;;;;;;;;;4969001;28;20030;-73
2022/05/22 03:13:57;;;;;;;12.32;5.45;;;;;;;;;;4973417;28;20038;-73
2022/05/22 03:16:24;;;;;;;13.02;5.65;;;;;;;;;;4961336;28;20049;-73
2022/05/22 03:18:50;;;;;;;7.15;5.07;;;;;;;;;;4960572;28;20423;-73
2022/05/22 03:21:17;;;;;;;8.77;5.10;;;;;;;;;;4951464;28;20038;-73
2022/05/22 03:23:43;;;;;;;13.48;5.18;;;;;;;;;;4971226;28;20092;-73
2022/05/22 03:26:09;;;;;;;8.05;5.25;;;;;;;;;;4970255;28;20105;-73
2022/05/22 03:28:36;;;;;;;8.70;5.18;;;;;;;;;;4973400;28;20025;-73
2022/05/22 03:31:01;;;;;;;12.38;5.78;;;;;;;;;;4971895;28;20437;-73
2022/05/22 03:33:27;;;;;;;11.23;4.95;;;;;;;;;;4955403;28;20046;-73
2022/05/22 03:35:53;;;;;;;7.65;5.30;;;;;;;;;;4971822;28;20122;-73
2022/05/22 03:38:19;;;;;;;10.75;5.38;;;;;;;;;;4972004;28;20031;-73
2022/05/22 03:40:47;;;;;;;9.93;5.55;;;;;;;;;;4968733;28;20046;-73
2022/05/22 03:43:13;;;;;;;9.50;5.75;;;;;;;;;;4975586;28;20035;-73
2022/05/22 03:45:39;;;;;;;10.15;5.15;;;;;;;;;;4969663;28;20493;-73
2022/05/22 03:48:06;;;;;;;8.88;5.07;;;;;;;;;;4954535;28;20031;-73
2022/05/22 03:50:32;;;;;;;10.23;5.75;;;;;;;;;;4970731;28;20518;-73
2022/05/22 03:52:58;;;;;;;15.30;6.07;;;;;;;;;;4971545;28;20061;-73
2022/05/22 03:55:24;;;;;;;12.85;6.15;;;;;;;;;;4972356;28;20031;-73
2022/05/22 03:57:50;;;;;;;10.00;6.47;;;;;;;;;;4971025;28;20478;-73
2022/05/22 04:00:17;;;;;;;11.88;5.45;;;;;;;;;;4946166;28;20089;-73
2022/05/22 04:02:43;;;;;;;10.20;5.75;;;;;;;;;;4970906;28;20043;-74
2022/05/22 04:05:09;;;;;;;8.75;5.63;;;;;;;;;;4971867;28;20054;-74
2022/05/22 04:07:37;;;;;;;8.52;5.78;;;;;;;;;;4953616;28;20042;-73
2022/05/22 04:10:03;;;;;;;9.27;5.65;;;;;;;;;;4968400;28;20499;-73
2022/05/22 04:12:29;;;;;;;9.05;5.60;;;;;;;;;;4970251;28;20538;-73
2022/05/22 04:14:55;;;;;;;13.75;5.90;;;;;;;;;;4984540;28;20069;-73
2022/05/22 04:17:21;;;;;;;9.23;6.00;;;;;;;;;;4954274;28;20030;-73
2022/05/22 04:19:47;;;;;;;6.20;4.90;;;;;;;;;;4972425;28;20041;-73
2022/05/22 04:22:13;;;;;;;11.35;5.72;;;;;;;;;;4973032;28;20039;-73
2022/05/22 04:27:24;;;;;;;10.75;5.75;;;;;;;;;;4971688;28;20054;-75
2022/05/22 04:29:50;;;;;;;15.02;6.70;;;;;;;;;;4971503;28;20031;-75
2022/05/22 04:32:16;;;;;;;8.20;6.22;;;;;;;;;;4975488;28;20030;-75
2022/05/22 04:34:42;;;;;;;12.48;6.40;;;;;;;;;;4976507;28;20062;-76
2022/05/22 04:37:08;;;;;;;18.92;7.18;;;;;;;;;;4970368;28;20432;-76
2022/05/22 04:39:34;;;;;;;14.88;6.45;;;;;;;;;;4973542;28;20033;-74
2022/05/22 04:42:00;;;;;;;14.98;7.22;;;;;;;;;;4972434;28;20039;-73
2022/05/22 04:44:26;;;;;;;12.77;7.93;;;;;;;;;;4948726;28;20042;-74
2022/05/22 04:46:52;;;;;;;12.93;6.90;;;;;;;;;;4969698;28;20058;-74
2022/05/22 04:49:18;;;;;;;16.65;8.05;;;;;;;;;;4967899;28;20464;-74
2022/05/22 04:51:44;;;;;;;12.55;7.40;;;;;;;;;;4969378;28;20038;-72
2022/05/22 04:54:11;;;;;;;14.20;7.93;;;;;;;;;;4972541;28;20445;-73
2022/05/22 04:56:37;;;;;;;13.68;6.95;;;;;;;;;;4974346;28;20118;-71
2022/05/22 04:59:03;;;;;;;13.63;7.57;;;;;;;;;;4972944;28;20065;-72
2022/05/22 05:01:29;;;;;;;15.65;8.65;;;;;;;;;;4970433;28;20038;-72
2022/05/22 05:03:56;;;;;;;21.88;7.25;;;;;;;;;;4971461;28;20027;-71
2022/05/22 05:06:22;;;;;;;12.10;7.30;;;;;;;;;;4971303;28;20058;-72
2022/05/22 05:08:48;;;;;;;13.35;7.50;;;;;;;;;;4975640;28;20155;-75
2022/05/22 05:11:14;;;;;;;18.58;8.27;;;;;;;;;;4972204;28;20042;-75
2022/05/22 05:13:40;;;;;;;33.42;19.65;;;;;;;;;;4971311;28;20038;-74
2022/05/22 05:16:06;;;;;;;16.13;7.00;;;;;;;;;;4953695;28;20039;-73
2022/05/22 05:18:33;;;;;;;8.10;6.60;;;;;;;;;;4970852;28;20034;-73
2022/05/22 05:21:00;;;;;;;11.30;6.30;;;;;;;;;;4969708;28;20163;-72
2022/05/22 05:23:26;;;;;;;11.93;6.15;;;;;;;;;;4972304;28;20034;-74
2022/05/22 05:25:52;;;;;;;12.68;6.45;;;;;;;;;;4979481;28;20027;-73
2022/05/22 05:28:18;;;;;;;10.25;5.53;;;;;;;;;;4974024;28;20039;-73
2022/05/22 05:30:44;;;;;;;13.95;6.60;;;;;;;;;;4970059;28;20042;-72
2022/05/22 05:33:11;;;;;;;13.35;6.13;;;;;;;;;;4971084;28;20035;-72
2022/05/22 05:35:37;;;;;;;9.60;5.65;;;;;;;;;;4972707;28;20042;-72
2022/05/22 05:38:04;;;;;;;11.63;6.95;;;;;;;;;;4975347;28;20076;-73
2022/05/22 05:40:30;;;;;;;10.77;6.93;;;;;;;;;;4963469;28;20038;-72
2022/05/22 05:42:57;;;;;;;19.50;7.20;;;;;;;;;;4978555;28;20097;-73
2022/05/22 05:45:25;;;;;;;9.80;6.25;;;;;;;;;;4972165;28;20039;-73
2022/05/22 05:47:51;;;;;;;18.52;5.90;;;;;;;;;;4973884;28;20034;-73
2022/05/22 05:50:21;;;;;;;14.73;7.63;;;;;;;;;;4972366;28;20050;-73
2022/05/22 05:52:51;;;;;;;12.93;6.47;;;;;;;;;;4973425;28;20027;-73
2022/05/22 05:55:17;;;;;;;15.32;6.22;;;;;;;;;;4972424;28;20486;-72
2022/05/22 05:57:43;;;;;;;13.85;6.47;;;;;;;;;;4974991;28;20030;-72
2022/05/22 06:00:10;;;;;;;16.90;5.97;;;;;;;;;;4954263;28;20049;-72
2022/05/22 06:02:36;;;;;;;20.13;6.63;;;;;;;;;;4974523;28;20069;-73
2022/05/22 06:05:03;;;;;;;16.27;6.20;;;;;;;;;;4973099;28;20083;-73
2022/05/22 06:07:29;;;;;;;18.50;7.22;;;;;;;;;;4973697;28;20038;-73
2022/05/22 06:09:55;;;;;;;14.30;6.35;;;;;;;;;;4970673;28;20046;-73
2022/05/22 06:12:21;;;;;;;16.13;6.57;;;;;;;;;;4974561;28;20030;-73
2022/05/22 06:14:47;;;;;;;17.05;6.85;;;;;;;;;;4973754;28;21886;-73
2022/05/22 06:17:14;;;;;;;15.18;5.70;;;13.10;99.90;;;;;;4968017;28;20031;-74
2022/05/22 06:19:56;;;;;;;14.25;5.88;;;;;;;;;;4971569;28;20031;-74
2022/05/22 06:22:23;;;;;;;13.70;6.00;;;;;;;;;;4975081;28;20061;-74
2022/05/22 06:24:49;;;;;;;16.35;6.55;;;;;;;;;;4955790;28;20027;-74
2022/05/22 06:27:16;;;;;;;19.35;5.68;;;;;;;;;;4972338;28;20383;-74
2022/05/22 06:29:43;;;;;;;36.80;19.13;;;15.80;99.90;;;;;;4970796;28;20031;-72
2022/05/22 06:32:13;;;;;;;30.65;16.45;;;16.20;99.90;;;;;;4978707;28;20026;-73
2022/05/22 06:34:41;;;;;;;14.00;5.85;;;;;;;;;;4957659;28;20125;-75
2022/05/22 06:37:07;;;;;;;14.98;4.55;;;;;;;;;;4967370;28;20030;-74
2022/05/22 06:39:51;;;;;;;18.45;5.03;;;;;;;;;;4988199;28;20031;-74
2022/05/22 06:42:28;;;;;;;11.38;4.05;;;17.30;99.90;;;;;;4968825;28;20114;-74
2022/05/22 06:45:01;;;;;;;14.95;4.53;;;;;;;;;;4967645;28;20039;-75
2022/05/22 06:47:29;;;;;;;12.98;3.78;;;17.80;99.90;;;;;;4970302;28;20034;-75
2022/05/22 06:49:56;;;;;;;11.70;4.28;;;;;;;;;;4979651;28;20030;-75
2022/05/22 06:52:22;;;;;;;11.20;3.80;;;;;;;;;;4967877;28;20033;-73
2022/05/22 06:54:48;;;;;;;19.90;9.70;;;;;;;;;;4955025;28;20049;-80
2022/05/22 06:57:15;;;;;;;13.70;5.97;;;;;;;;;;4983617;28;20382;-81
2022/05/22 06:59:42;;;;;;;9.57;3.90;;;;;;;;;;4973359;28;20481;-76
2022/05/22 07:02:08;;;;;;;13.63;3.40;;;;;;;;;;4972483;28;20054;-76
2022/05/22 07:04:34;;;;;;;7.93;2.92;;;;;;;;;;4973252;28;20163;-76
2022/05/22 07:07:00;;;;;;;9.52;2.97;;;;;;;;;;4956419;28;20359;-76
2022/05/22 07:09:26;;;;;;;14.68;4.25;;;;;;;;;;4973740;28;20463;-75
2022/05/22 07:11:56;;;;;;;8.98;2.88;;;;;;;;;;4971857;28;20110;-76
2022/05/22 07:14:23;;;;;;;11.85;2.85;;;;;;;;;;4972731;28;20054;-76
2022/05/22 07:16:50;;;;;;;12.85;2.53;;;;;;;;;;4971515;28;20034;-74
2022/05/22 07:19:17;;;;;;;7.68;2.90;;;;;;;;;;4970567;28;20097;-75
2022/05/22 07:21:43;;;;;;;7.60;2.47;;;;;;;;;;4968647;28;20069;-74
2022/05/22 07:24:09;;;;;;;12.75;3.13;;;;;;;;;;4969166;28;20039;-75
2022/05/22 07:26:36;;;;;;;8.98;2.20;;;;;;;;;;4966621;28;20094;-75
2022/05/22 07:29:02;;;;;;;8.20;2.90;;;;;;;;;;4972915;28;20023;-74
2022/05/22 07:31:29;;;;;;;14.00;2.92;;;23.50;99.90;;;;;;4954228;28;20034;-74
2022/05/22 07:33:55;;;;;;;10.38;2.22;;;;;;;;;;4972189;28;20026;-74
2022/05/22 07:36:21;;;;;;;9.18;2.40;;;;;;;;;;4969436;28;20041;-74
2022/05/22 07:38:48;;;;;;;7.28;2.58;;;;;;;;;;4971797;28;20379;-74
2022/05/22 07:41:14;;;;;;;8.13;2.10;;;;;;;;;;4971707;28;20248;-74
2022/05/22 07:43:40;;;;;;;12.55;3.35;;;24.60;98.80;;;;;;4969238;28;20038;-74
2022/05/22 07:46:08;;;;;;;8.93;2.60;;;24.90;98.80;;;;;;4966822;28;20406;-75
2022/05/22 07:48:34;;;;;;;8.05;2.38;;;;;;;;;;4970576;28;20066;-74
2022/05/22 07:51:03;;;;;;;9.23;3.17;;;;;;;;;;4971242;28;20033;-74
2022/05/22 07:53:29;;;;;;;9.85;3.65;;;25.30;99.90;;;;;;4971591;28;20043;-74
2022/05/22 07:55:56;;;;;;;9.48;2.70;;;;;;;;;;4974320;28;20066;-74
2022/05/22 07:58:22;;;;;;;7.85;2.22;;;;;;;;;;4955648;28;20038;-74
2022/05/22 08:00:50;;;;;;;6.43;2.40;;;;;;;;;;4972047;28;20173;-74
2022/05/22 08:03:16;;;;;;;10.32;2.47;;;;;;;;;;4969898;28;20027;-75
2022/05/22 08:05:42;;;;;;;11.13;2.60;;;;;;;;;;4969861;28;20144;-76
2022/05/22 08:08:09;;;;;;;8.27;2.55;;;;;;;;;;4963811;28;20462;-75
2022/05/22 08:10:36;;;;;;;8.60;2.38;;;26.10;99.60;;;;;;4972118;28;20058;-76
2022/05/22 08:13:03;;;;;;;10.27;2.55;;;;;;;;;;4970770;28;20467;-75
2022/05/22 08:15:30;;;;;;;8.27;2.50;;;26.10;95.00;;;;;;4969138;28;20039;-76
2022/05/22 08:17:56;;;;;;;11.57;2.30;;;;;;;;;;4969217;28;20073;-75
2022/05/22 08:20:23;;;;;;;9.40;3.03;;;;;;;;;;4969699;28;20398;-76
2022/05/22 08:22:55;;;;;;;7.28;2.22;;;;;;;;;;4971926;28;20030;-76
2022/05/22 08:25:21;;;;;;;8.55;2.20;;;;;;;;;;4967582;28;20031;-76
2022/05/22 08:27:47;;;;;;;7.68;2.40;;;;;;;;;;4965492;28;20046;-76
2022/05/22 08:30:15;;;;;;;7.38;1.92;;;;;;;;;;4969247;28;20039;-76
2022/05/22 08:32:42;;;;;;;10.57;3.25;;;26.60;93.00;;;;;;4965519;28;20042;-76
2022/05/22 08:35:10;;;;;;;16.67;9.60;;;;;;;;;;4952570;28;20042;-75
2022/05/22 08:37:36;;;;;;;8.23;2.97;;;26.10;97.50;;;;;;4971957;28;20382;-75
2022/05/22 08:40:04;;;;;;;5.97;2.13;;;;;;;;;;4954039;28;20129;-77
2022/05/22 08:42:41;;;;;;;8.73;2.42;;;25.20;93.30;;;;;;4965135;28;20106;-75
2022/05/22 08:45:10;;;;;;;9.32;1.90;;;;;;;;;;4966889;28;20041;-74
2022/05/22 08:47:46;;;;;;;11.85;2.72;;;25.30;94.10;;;;;;4968686;28;20037;-73
2022/05/22 08:50:12;;;;;;;6.63;2.00;;;25.50;98.90;;;;;;4970983;28;20348;-74
2022/05/22 08:53:00;;;;;;;8.52;1.95;;;;;;;;;;4968589;28;20078;-73
2022/05/22 09:01:15;;;;;;;6.63;2.20;;;;;;;;;;4969075;28;20054;-73
2022/05/22 09:03:50;;;;;;;10.68;2.47;;;;;;;;;;4970107;28;20085;-73
2022/05/22 09:06:17;;;;;;;6.75;1.85;;;;;;;;;;4979377;28;20051;-73
2022/05/22 09:08:46;;;;;;;7.07;2.38;;;;;;;;;;4968659;28;20034;-73
2022/05/22 09:11:22;;;;;;;6.82;2.20;;;;;;;;;;4975605;28;20034;-73
2022/05/22 09:14:09;;;;;;;9.75;2.38;;;;;;;;;;4980007;28;20084;-73
2022/05/22 09:16:45;;;;;;;8.00;2.28;;;;;;;;;;4971449;28;20030;-73
2022/05/22 09:19:12;;;;;;;8.27;2.50;;;;;;;;;;4957683;28;20031;-73
2022/05/22 09:21:55;;;;;;;10.70;2.97;;;25.10;95.10;;;;;;4971820;28;20037;-73
2022/05/22 09:24:51;;;;;;;7.20;2.35;;;24.70;93.10;;;;;;4973378;28;20121;-73
2022/05/22 09:27:46;;;;;;;8.73;2.50;;;;;;;;;;4974381;28;20723;-74
2022/05/22 09:30:18;;;;;;;8.60;2.20;;;;;;;;;;4952681;28;20051;-74
2022/05/22 09:33:27;;;;;;;12.32;3.38;;;23.50;97.80;;;;;;4973398;28;20037;-74
2022/05/22 09:35:54;;;;;;;7.75;2.38;;;;;;;;;;4884519;28;20383;-73
2022/05/22 09:38:35;;;;;;;11.27;2.65;;;;;;;;;;4972125;28;20113;-72
2022/05/22 09:41:04;;;;;;;10.77;2.42;;;;;;;;;;4961796;28;20053;-71
2022/05/22 09:43:50;;;;;;;13.48;3.17;;;;;;;;;;4968064;28;20177;-71
2022/05/22 09:46:40;;;;;;;11.48;2.72;;;22.80;97.60;;;;;;4972925;28;20058;-70
2022/05/22 09:49:29;;;;;;;15.90;7.57;;;;;;;;;;4973818;28;20055;-70
2022/05/22 09:51:55;;;;;;;21.23;8.90;;;;;;;;;;4960404;28;20085;-73
2022/05/22 09:54:26;;;;;;;10.75;2.67;;;22.40;99.90;;;;;;4974592;28;20033;-72
2022/05/22 09:57:25;;;;;;;8.07;2.53;;;22.50;99.90;;;;;;4956597;28;20037;-73
2022/05/22 10:00:03;;;;;;;10.90;2.30;;;23.10;99.90;;;;;;4967637;28;20038;-74
2022/05/22 10:03:04;;;;;;;8.15;2.40;;;23.50;99.90;;;;;;4972652;28;20034;-74
2022/05/22 10:06:03;;;;;;;9.00;2.65;;;23.90;97.30;;;;;;4941209;28;20177;-73
2022/05/22 10:08:51;;;;;;;11.63;2.90;;;24.30;98.50;;;;;;4966696;28;20042;-74
2022/05/22 10:11:51;;;;;;;16.20;7.75;;;24.70;97.80;;;;;;4964725;28;20105;-73
2022/05/22 10:14:29;;;;;;;9.93;2.35;;;24.90;99.90;;;;;;4972457;28;20114;-73
2022/05/22 10:17:16;;;;;;;8.32;2.35;;;25.10;99.90;;;;;;4974308;28;20023;-73
2022/05/22 10:20:06;;;;;;;11.27;2.50;;;24.70;99.00;;;;;;4968341;28;20687;-75
2022/05/22 10:22:59;;;;;;;8.15;2.08;;;24.50;97.80;;;;;;4969111;28;20035;-75
2022/05/22 10:26:25;;;;;;;8.57;1.90;;;24.10;99.90;;;;;;4972677;28;20407;-75
2022/05/22 10:29:11;;;;;;;10.90;2.15;;;;;;;;;;4954295;28;20027;-75
2022/05/22 10:31:41;;;;;;;8.90;1.92;;;23.60;99.90;;;;;;4958781;28;20575;-75
2022/05/22 10:34:07;;;;;;;6.25;1.50;;;;;;;;;;4973847;28;20039;-75
2022/05/22 10:36:45;;;;;;;7.40;2.58;;;24.00;98.30;;;;;;4974356;28;20761;-74
2022/05/22 10:39:12;;;;;;;14.18;5.50;;;;;;;;;;4955932;28;20023;-75
2022/05/22 10:44:29;;;;;;;8.10;2.33;;;23.50;99.90;;;;;;4957781;28;20113;-75
2022/05/22 10:47:02;;;;;;;7.07;2.08;;;23.90;99.60;;;;;;4974365;28;20068;-75
2022/05/22 10:49:42;;;;;;;5.95;2.13;;;24.50;99.30;;;;;;4973341;28;20038;-75
2022/05/22 10:52:10;;;;;;;6.85;1.70;;;;;;;;;;4972277;28;20030;-75
2022/05/22 10:54:52;;;;;;;5.28;1.70;;;25.40;96.30;;;;;;4971944;28;20062;-75
2022/05/22 10:57:24;;;;;;;9.25;1.90;;;25.70;99.90;;;;;;4971106;28;20066;-74
2022/05/22 10:59:51;;;;;;;9.60;1.80;;;25.80;99.90;;;;;;4971012;28;20553;-74
2022/05/22 11:02:28;;;;;;;9.48;1.52;;;26.10;97.40;;;;;;4972950;28;20053;-74
2022/05/22 11:04:56;;;;;;;7.40;1.42;;;26.00;99.90;;;;;;4964811;28;20490;-75
2022/05/22 11:07:43;;;;;;;7.68;1.65;;;26.20;94.40;;;;;;4985134;28;20093;-75
2022/05/22 11:10:22;;;;;;;7.00;1.55;;;26.10;94.90;;;;;;4962927;28;20122;-74
2022/05/22 11:13:08;;;;;;;9.10;1.60;;;26.20;99.10;;;;;;4966493;28;20043;-74
2022/05/22 11:15:42;;;;;;;5.15;1.30;;;26.10;95.90;;;;;;4960224;28;20029;-75
2022/05/22 11:18:18;;;;;;;7.75;2.03;;;26.00;97.20;;;;;;4971644;28;20031;-75
2022/05/22 11:20:58;;;;;;;5.57;1.63;;;25.90;98.90;;;;;;4966527;28;20505;-76
2022/05/22 11:23:56;;;;;;;8.43;1.83;;;25.50;97.70;;;;;;4971194;28;20126;-74
2022/05/22 11:26:45;;;;;;;6.90;1.48;;;25.60;97.90;;;;;;4966556;28;20497;-74
2022/05/22 11:29:28;;;;;;;7.45;1.42;;;25.70;99.90;;;;;;4971526;28;22651;-74
2022/05/22 11:32:15;;;;;;;4.60;1.52;;;25.40;97.90;;;;;;4968750;28;20035;-74
2022/05/22 11:35:09;;;;;;;5.50;1.75;;;25.60;99.90;;;;;;4961061;28;20031;-73
2022/05/22 11:37:38;;;;;;;5.00;1.30;;;;;;;;;;4967850;28;20378;-74
2022/05/22 11:40:32;;;;;;;4.65;1.25;;;;;;;;;;4974867;28;20035;-74
2022/05/22 11:43:06;;;;;;;4.70;1.70;;;;;;;;;;4924292;28;20109;-74
2022/05/22 11:45:37;;;;;;;7.05;2.13;;;25.50;99.90;;;;;;4970386;28;20027;-74
2022/05/22 11:48:15;;;;;;;5.85;1.38;;;;;;;;;;4968406;28;20508;-74
2022/05/22 11:50:53;;;;;;;5.40;1.45;;;;;;;;;;4963245;28;20035;-74
2022/05/22 11:53:23;;;;;;;5.88;1.58;;;;;;;;;;4970620;28;20034;-74
2022/05/22 11:56:27;;;;;;;6.55;1.15;;;25.00;99.90;;;;;;4972350;28;20501;-74
2022/05/22 11:59:06;;;;;;;5.25;1.15;;;;;;;;;;4963864;28;20459;-74
2022/05/22 12:01:38;;;;;;;4.53;1.48;;;25.10;99.90;;;;;;4969720;28;20058;-74
2022/05/22 12:04:23;;;;;;;4.70;1.10;;;;;;;;;;4948468;28;20125;-74
2022/05/22 12:07:06;;;;;;;5.25;1.10;;;24.90;99.90;;;;;;4961546;28;20041;-74
2022/05/22 12:09:55;;;;;;;5.82;1.35;;;24.90;99.90;;;;;;4970028;28;20119;-74
2022/05/22 12:12:42;;;;;;;5.43;1.45;;;25.00;99.90;;;;;;4970237;28;20041;-74
2022/05/22 12:15:36;;;;;;;6.30;1.67;;;25.40;99.90;;;;;;4963768;28;20038;-74
2022/05/22 12:18:23;;;;;;;5.22;1.55;;;;;;;;;;4970069;28;20383;-74
2022/05/22 12:21:00;;;;;;;3.83;1.17;;;25.60;98.30;;;;;;4966592;28;20102;-74
2022/05/22 12:23:29;;;;;;;5.72;1.73;;;25.80;97.40;;;;;;4969755;28;20031;-74
2022/05/22 12:26:00;;;;;;;5.38;1.48;;;26.00;95.10;;;;;;4969446;28;20165;-74
2022/05/22 12:28:26;;;;;;;7.68;1.30;;;;;;;;;;4970566;28;20381;-74
2022/05/22 12:30:57;;;;;;;5.38;1.15;;;26.10;93.90;;;;;;4968050;28;20038;-74
2022/05/22 12:33:27;;;;;;;4.10;1.30;;;26.20;99.80;;;;;;4967520;28;20058;-74
2022/05/22 12:35:52;;;;;;;3.97;1.33;;;26.10;95.40;;;;;;4966798;28;20038;-76
2022/05/22 12:38:18;;;;;;;7.03;1.35;;;;;;;;;;4949114;28;20053;-77
2022/05/22 12:41:15;;;;;;;6.72;2.97;;;26.10;98.40;;;;;;4957829;28;20490;-76
2022/05/22 12:43:42;;;;;;;5.68;1.50;;;25.60;98.10;;;;;;4972142;28;20062;-73
2022/05/22 12:46:10;;;;;;;6.90;1.67;;;25.40;93.50;;;;;;4971927;28;20046;-73
2022/05/22 12:48:37;;;;;;;3.10;1.17;;;;;;;;;;4973150;28;20023;-73
2022/05/22 12:51:32;;;;;;;4.13;1.17;;;25.80;94.20;;;;;;4973406;28;20027;-73
2022/05/22 12:54:08;;;;;;;3.75;1.20;;;;;;;;;;4977383;28;20070;-73
2022/05/22 12:56:33;;;;;;;3.35;1.00;;;25.90;98.30;;;;;;4981686;28;20026;-72
2022/05/22 12:59:00;;;;;;;5.38;1.50;;;;;;;;;;4973653;28;20038;-74
2022/05/22 13:01:34;;;;;;;6.47;1.70;;;;;;;;;;4968217;28;20063;-71
2022/05/22 13:04:01;;;;;;;6.30;1.23;;;;;;;;;;4971590;28;20050;-71
2022/05/22 13:06:37;;;;;;;7.22;1.20;;;26.20;92.50;;;;;;4968108;28;20062;-72
2022/05/22 13:09:06;;;;;;;4.50;0.90;;;26.10;92.00;;;;;;4969777;28;20054;-71
2022/05/22 13:11:43;;;;;;;5.35;1.30;;;;;;;;;;4972493;28;20034;-73
2022/05/22 13:14:21;;;;;;;9.07;2.38;;;26.10;93.50;;;;;;4971880;28;20031;-71
2022/05/22 13:16:49;;;;;;;11.25;5.45;;;;;;;;;;4972142;28;20035;-73
2022/05/22 13:19:41;;;;;;;5.90;1.33;;;;;;;;;;4972200;28;20525;-73
2022/05/22 13:22:11;;;;;;;;;;;25.60;92.90;;;;;;4969180;28;20097;-73
2022/05/22 13:24:38;;;;;;;7.32;1.10;;;25.60;98.20;;;;;;4972810;28;20404;-73
2022/05/22 13:27:09;;;;;;;6.07;1.27;;;;;;;;;;4973999;28;20062;-73
2022/05/22 13:30:00;;;;;;;4.88;1.67;;;25.60;91.70;;;;;;4956569;28;20083;-73
2022/05/22 13:32:45;;;;;;;3.60;1.00;;;25.60;90.20;;;;;;4974377;28;20027;-73
2022/05/22 13:35:13;;;;;;;10.73;1.55;;;;;;;;;;4973093;28;20038;-72
2022/05/22 13:37:47;;;;;;;4.35;1.85;;;25.80;91.50;;;;;;4970906;28;20051;-72
2022/05/22 13:40:20;;;;;;;3.05;1.20;;;26.00;91.50;;;;;;4974187;28;20380;-72
2022/05/22 13:43:06;;;;;;;4.88;0.95;;;;;;;;;;4972527;28;20039;-73
2022/05/22 13:45:51;;;;;;;3.65;1.20;;;;;;;;;;4978098;28;20027;-73
2022/05/22 13:48:32;;;;;;;9.50;5.00;;;;;;;;;;4952668;28;20065;-72
2022/05/22 13:54:50;;;;;;;4.80;1.35;;;26.50;91.10;;;;;;4963343;28;20065;-74
2022/05/22 13:57:20;;;;;;;4.68;1.25;;;26.50;89.40;;;;;;4848251;29;20120;-74
2022/05/22 13:59:57;;;;;;;4.40;1.10;;;26.40;90.70;;;;;;4857607;29;20493;-74
2022/05/22 14:02:26;;;;;;;4.63;1.08;;;;;;;;;;4933101;28;20031;-74
2022/05/22 14:04:55;;;;;;;4.78;1.25;;;26.20;91.60;;;;;;4969410;28;20058;-74
2022/05/22 14:07:30;;;;;;;3.33;1.17;;;25.90;91.90;;;;;;4956495;28;20371;-74
2022/05/22 14:09:57;;;;;;;5.07;0.77;;;25.80;92.30;;;;;;4970039;28;20034;-73
2022/05/22 14:12:29;;;;;;;7.95;1.30;;;25.60;92.10;;;;;;4972231;28;20038;-74
2022/05/22 14:14:55;;;;;;;5.15;1.33;;;;;;;;;;4971374;28;20104;-72
2022/05/22 14:17:31;;;;;;;6.25;1.08;;;25.50;91.50;;;;;;4971270;28;20034;-73
2022/05/22 14:20:04;;;;;;;67.78;55.08;;;;;;;;;;4972016;28;20085;-71
2022/05/22 14:22:30;;;;;;;24.38;17.85;;;;;;;;;;4972918;28;20034;-74
2022/05/22 14:25:00;;;;;;;4.63;1.00;;;;;;;;;;4954385;28;20047;-75
2022/05/22 14:27:31;;;;;;;5.57;1.70;;;;;;;;;;4976791;28;20029;-74
2022/05/22 14:30:26;;;;;;;2.38;0.75;;;26.20;97.60;;;;;;4965782;28;20462;-73
2022/05/22 14:33:17;;;;;;;4.97;1.20;;;26.20;98.10;;;;;;4971501;28;20722;-73
2022/05/22 14:35:43;;;;;;;4.30;0.95;;;26.20;98.20;;;;;;4963244;28;20406;-74
2022/05/22 14:38:22;;;;;;;6.20;1.40;;;26.20;98.00;;;;;;4969411;28;20026;-74
2022/05/22 14:41:05;;;;;;;3.53;1.08;;;26.30;97.50;;;;;;4973636;28;20039;-73
2022/05/22 14:43:39;;;;;;;4.38;1.25;;;26.30;97.20;;;;;;4971136;28;20039;-74